Time;durP1;ratioP1;P1;durP2;ratioP2;P2;SDS_P1;SDS_P2;PMS_P1;PMS_P2;Temp;Humidity;BMP_temperature;BMP_pressure;BME280_temperature;BME280_humidity;BME280_pressure;Samples;Min_cycle;Max_cycle;Signal;HPM_P1;HPM_P2
2021/01/16 00:00:32;;;;;;;22.10;11.83;;;;;;;;;;4392249;32;20157;-79
2021/01/16 00:03:07;;;;;;;18.97;10.67;;;;;;;;;;4392406;32;20150;-79
2021/01/16 00:05:32;;;;;;;22.23;11.63;;;;;;;;;;4392162;32;20166;-78
2021/01/16 00:07:59;;;;;;;20.03;9.97;;;;;;;;;;4391982;32;20203;-79
2021/01/16 00:10:24;;;;;;;19.07;10.67;;;;;;;;;;4405847;32;20181;-79
2021/01/16 00:12:50;;;;;;;19.53;10.73;;;;;;;;;;4392093;32;20228;-79
2021/01/16 00:15:18;;;;;;;20.07;11.03;;;;;;;;;;4390594;32;20184;-79
2021/01/16 00:17:46;;;;;;;17.77;10.27;;;;;;;;;;4392300;32;20162;-79
2021/01/16 00:23:01;;;;;;;19.40;10.00;;;;;;;;;;4405974;32;20581;-78
2021/01/16 00:25:30;;;;;;;16.07;10.07;;;;;;;;;;4392165;32;20260;-78
2021/01/16 00:27:58;;;;;;;20.67;10.97;;;;;;;;;;4391769;32;20599;-78
2021/01/16 00:33:34;;;;;;;18.47;10.67;;;;;;;;;;4358950;32;20599;-78
2021/01/16 00:36:03;;;;;;;16.67;9.70;;;;;;;;;;4392197;32;20154;-79
2021/01/16 00:38:29;;;;;;;17.70;10.30;;;;;;;;;;4391607;32;20161;-79
2021/01/16 00:40:59;;;;;;;17.13;10.63;;;;;;;;;;4405119;32;20176;-78
2021/01/16 00:44:19;;;;;;;18.37;10.20;;;;;;;;;;4405660;32;20539;-78
2021/01/16 00:46:20;;;;;;;19.43;10.40;;;;;;;;;;4396967;32;20603;-78
2021/01/16 00:48:54;;;;;;;17.90;10.20;;;;;;;;;;4391894;32;20193;-78
2021/01/16 00:51:22;;;;;;;18.10;9.70;;;;;;;;;;4391726;32;20145;-78
2021/01/16 00:53:50;;;;;;;19.03;10.40;;;;;;;;;;4390918;32;20289;-77
2021/01/16 00:56:21;;;;;;;18.17;10.53;;;;;;;;;;4391420;32;20158;-78
2021/01/16 00:58:58;;;;;;;19.07;10.30;;;;;;;;;;4405897;32;20142;-78
2021/01/16 01:01:26;;;;;;;17.00;10.17;;;;;;;;;;4391701;32;20518;-78
2021/01/16 01:03:56;;;;;;;16.53;10.47;;;;;;;;;;4391899;32;20268;-78
2021/01/16 01:06:22;;;;;;;19.00;10.50;;;;;;;;;;4405429;32;20174;-78
2021/01/16 01:09:02;;;;;;;18.73;10.57;;;;;;;;;;4391206;32;20154;-78
2021/01/16 01:14:34;;;;;;;19.20;10.10;;;;;;;;;;4357952;33;20167;-78
2021/01/16 01:17:20;;;;;;;15.80;10.07;;;;;;;;;;4357365;32;20510;-78
2021/01/16 01:19:46;;;;;;;18.23;10.20;;;;;;;;;;4358028;33;20213;-78
2021/01/16 01:22:14;;;;;;;16.63;10.20;;;;;;;;;;4357827;32;20635;-78
2021/01/16 01:24:39;;;;;;;16.83;10.53;;;;;;;;;;4359188;32;20229;-78
2021/01/16 01:27:05;;;;;;;18.60;10.57;;;;;;;;;;4360284;32;20591;-78
2021/01/16 01:29:31;;;;;;;16.37;9.40;;;;;;;;;;4360258;32;20310;-78
2021/01/16 01:31:56;;;;;;;18.97;9.93;;;;;;;;;;4359929;32;20528;-78
2021/01/16 01:34:25;;;;;;;18.27;9.30;;;;;;;;;;4359862;32;20162;-79
2021/01/16 01:37:03;;;;;;;18.03;9.40;;;;;;;;;;4359959;32;20163;-79
2021/01/16 01:39:45;;;;;;;16.63;9.20;;;;;;;;;;4360067;32;20154;-79
2021/01/16 01:42:25;;;;;;;17.30;9.60;;;;;;;;;;4391230;32;20232;-79
2021/01/16 01:44:51;;;;;;;17.77;9.50;;;;;;;;;;4404616;32;20141;-79
2021/01/16 01:50:19;;;;;;;17.60;9.10;;;;;;;;;;4357680;33;20210;-79
2021/01/16 01:52:57;;;;;;;15.47;8.77;;;;;;;;;;4388239;32;20165;-79
2021/01/16 01:55:54;;;;;;;17.97;9.83;;;;;;;;;;4393669;32;20157;-79
2021/01/16 01:58:25;;;;;;;18.43;9.83;;;;;;;;;;4407912;32;20290;-79
2021/01/16 02:00:59;;;;;;;16.00;8.90;;;;;;;;;;4408002;32;20118;-79
2021/01/16 02:03:36;;;;;;;17.17;9.33;;;;;;;;;;4393784;32;20154;-79
2021/01/16 02:06:01;;;;;;;16.60;8.93;;;;;;;;;;4394498;32;20197;-79
2021/01/16 02:08:44;;;;;;;15.03;8.73;;;;;;;;;;4393980;32;20511;-79
2021/01/16 02:11:10;;;;;;;16.00;9.07;;;;;;;;;;4393391;32;20150;-78
2021/01/16 02:13:36;;;;;;;16.00;9.07;;;;;;;;;;4394058;32;20165;-79
2021/01/16 02:16:09;;;;;;;17.03;9.43;;;;;;;;;;4407546;32;20263;-78
2021/01/16 02:18:36;;;;;;;17.40;9.53;;;;;;;;;;4393845;32;20471;-78
2021/01/16 02:21:07;;;;;;;16.33;9.60;;;;;;;;;;4394159;32;20295;-79
2021/01/16 02:23:44;;;;;;;18.23;9.73;;;;;;;;;;4390012;32;20150;-78
2021/01/16 02:32:48;;;;;;;15.70;8.73;;;;;;;;;;4360063;32;22018;-78
2021/01/16 02:35:19;;;;;;;16.53;9.03;;;;;;;;;;4330358;33;20186;-78
2021/01/16 02:38:02;;;;;;;13.67;8.37;;;;;;;;;;4338944;33;20167;-78
2021/01/16 02:40:41;;;;;;;14.40;8.60;;;;;;;;;;4376606;32;20242;-79
2021/01/16 02:43:31;;;;;;;12.97;8.07;;;;;;;;;;4390720;32;20150;-78
2021/01/16 02:46:16;;;;;;;14.57;8.00;;;;;;;;;;4377118;32;20554;-78
2021/01/16 02:49:10;;;;;;;14.03;7.60;;;;;;;;;;4377436;32;20284;-78
2021/01/16 02:51:46;;;;;;;13.80;7.90;;;;;;;;;;4390119;32;20139;-78
2021/01/16 02:54:37;;;;;;;;;;;;;;;;;;;;;
2021/01/16 02:57:09;;;;;;;14.10;8.17;;;;;;;;;;4407451;32;20146;-78
2021/01/16 02:59:43;;;;;;;14.20;8.63;;;;;;;;;;4386600;32;20169;-78
2021/01/16 03:02:14;;;;;;;15.23;8.43;;;;;;;;;;4393285;32;20154;-79
2021/01/16 03:04:40;;;;;;;14.97;8.73;;;;;;;;;;4393052;32;20172;-78
2021/01/16 03:07:25;;;;;;;14.33;8.37;;;;;;;;;;4406702;32;20133;-78
2021/01/16 03:10:15;;;;;;;15.70;9.40;;;;;;;;;;4393088;32;20245;-79
2021/01/16 03:12:45;;;;;;;14.77;8.87;;;;;;;;;;4393218;32;20147;-78
2021/01/16 03:15:19;;;;;;;14.67;8.60;;;;;;;;;;4406596;32;20153;-78
2021/01/16 03:17:49;;;;;;;14.23;8.43;;;;;;;;;;4406972;32;20180;-78
2021/01/16 03:20:53;;;;;;;13.20;8.70;;;;;;;;;;4406269;32;20168;-78
2021/01/16 03:23:28;;;;;;;;;;;;;;;;;;;;;
2021/01/16 03:26:14;;;;;;;15.57;9.00;;;;;;;;;;4394528;32;20170;-78
2021/01/16 03:31:45;;;;;;;13.70;7.93;;;;;;;;;;4406781;32;20246;-78
2021/01/16 03:34:10;;;;;;;16.30;8.67;;;;;;;;;;4392905;32;20211;-78
2021/01/16 03:40:11;;;;;;;13.13;7.17;;;;;;;;;;4344832;33;20162;-78
2021/01/16 03:42:36;;;;;;;14.47;8.10;;;;;;;;;;4344952;33;20151;-79
2021/01/16 03:45:23;;;;;;;15.93;8.53;;;;;;;;;;4397285;32;20538;-78
2021/01/16 03:48:18;;;;;;;18.57;8.63;;;;;;;;;;4405800;32;20142;-79
2021/01/16 03:50:44;;;;;;;15.17;7.87;;;;;;;;;;4384403;32;20187;-79
2021/01/16 03:53:12;;;;;;;15.50;8.50;;;;;;;;;;4392286;32;20162;-78
2021/01/16 03:56:13;;;;;;;13.77;7.50;;;;;;;;;;4392108;32;20158;-78
2021/01/16 04:11:41;;;;;;;15.77;7.70;;;;;;;;;;4314772;33;20210;-79
2021/01/16 04:14:10;;;;;;;13.33;7.97;;;;;;;;;;4299601;33;20159;-78
2021/01/16 04:20:05;;;;;;;12.60;7.83;;;;;;;;;;4314692;33;20159;-78
2021/01/16 04:23:11;;;;;;;15.33;8.07;;;;;;;;;;4314067;33;20140;-78
2021/01/16 04:32:10;;;;;;;16.37;8.90;;;;;;;;;;4314667;33;20148;-78
2021/01/16 04:34:35;;;;;;;18.17;8.27;;;;;;;;;;4328813;33;20238;-78
2021/01/16 04:43:44;;;;;;;16.47;8.50;;;;;;;;;;4314214;33;20146;-78
2021/01/16 04:46:13;;;;;;;15.60;7.93;;;;;;;;;;4313763;33;20179;-79
2021/01/16 04:49:16;;;;;;;18.53;8.70;;;;;;;;;;4314238;33;20502;-77
2021/01/16 04:52:07;;;;;;;;;;;;;;;;;;;;;
2021/01/16 05:01:14;;;;;;;15.13;7.70;;;;;;;;;;4328659;33;20139;-78
2021/01/16 05:04:00;;;;;;;16.00;7.60;;;;;;;;;;4328916;33;20222;-78
2021/01/16 05:07:11;;;;;;;;;;;;;;;;;;;;;
2021/01/16 05:19:20;;;;;;;;;;;;;;;;;;;;;
2021/01/16 05:21:57;;;;;;;15.13;7.93;;;;;;;;;;4313951;33;20160;-79
2021/01/16 05:24:33;;;;;;;14.27;7.77;;;;;;;;;;4313801;33;20223;-79
2021/01/16 05:27:26;;;;;;;16.43;8.40;;;;;;;;;;4339434;32;20204;-79
2021/01/16 05:35:57;;;;;;;16.17;7.93;;;;;;;;;;4389645;32;20176;-79
2021/01/16 05:47:31;;;;;;;13.37;8.23;;;;;;;;;;4313719;33;20168;-79
2021/01/16 05:59:05;;;;;;;;;;;;;;;;;;;;;
2021/01/16 06:01:50;;;;;;;12.50;6.40;;;;;;;;;;4269633;33;20179;-78
2021/01/16 06:04:57;;;;;;;;;;;;;;;;;;;;;
2021/01/16 06:10:31;;;;;;;10.47;6.17;;;;;;;;;;4241943;33;20215;-78
2021/01/16 06:19:36;;;;;;;11.63;6.53;;;;;;;;;;4284839;33;20184;-79
2021/01/16 06:22:18;;;;;;;;;;;;;;;;;;;;;
2021/01/16 06:25:05;;;;;;;13.30;7.13;;;;;;;;;;4372665;32;20201;-78
2021/01/16 06:34:05;;;;;;;12.33;6.87;;;;;;;;;;4327749;33;20221;-77
2021/01/16 06:36:52;;;;;;;13.27;7.03;;;;;;;;;;4345099;32;20181;-78
2021/01/16 06:39:18;;;;;;;16.77;7.70;;;;;;;;;;4375679;32;20162;-78
2021/01/16 06:41:52;;;;;;;15.67;7.83;;;;;;;;;;4378700;32;20494;-79
2021/01/16 06:47:22;;;;;;;13.87;7.27;;;;;;;;;;4392550;32;20488;-79
2021/01/16 06:50:17;;;;;;;15.33;7.63;;;;;;;;;;4376470;32;20166;-80
2021/01/16 06:52:57;;;;;;;15.93;7.90;;;;;;;;;;4344882;33;20199;-79
2021/01/16 06:55:36;;;;;;;15.33;7.93;;;;;;;;;;4350108;32;20189;-78
2021/01/16 06:58:54;;;;;;;16.37;8.90;;;;;;;;;;4391951;32;20235;-78
2021/01/16 07:01:15;;;;;;;16.23;8.70;;;;;;;;;;4390083;32;20205;-78
2021/01/16 07:03:52;;;;;;;22.13;9.90;;;;;;;;;;4392064;32;20139;-78
2021/01/16 07:06:22;;;;;;;20.00;9.30;;;;;;;;;;4379088;32;20235;-78
2021/01/16 07:09:22;;;;;;;17.07;9.20;;;;;;;;;;4392228;32;20213;-78
2021/01/16 07:12:14;;;;;;;20.10;9.77;;;;;;;;;;4377184;32;20652;-76
2021/01/16 07:14:41;;;;;;;31.07;10.90;;;;;;;;;;4374974;32;20167;-79
2021/01/16 07:20:42;;;;;;;19.73;10.43;;;;;;;;;;4273812;33;20231;-78
2021/01/16 07:23:08;;;;;;;24.63;11.77;;;;;;;;;;4364613;32;20170;-80
2021/01/16 07:25:34;;;;;;;18.63;10.27;;;;;;;;;;4377627;32;20174;-80
2021/01/16 07:28:00;;;;;;;19.87;10.80;;;;;;;;;;4391986;32;20192;-79
2021/01/16 07:30:26;;;;;;;19.60;10.70;;;;;;;;;;4378344;32;20174;-80
2021/01/16 07:32:53;;;;;;;22.93;10.70;;;;;;;;;;4377772;32;20177;-79
2021/01/16 07:35:23;;;;;;;20.17;10.73;;;;;;;;;;4377401;32;20158;-79
2021/01/16 07:37:50;;;;;;;20.67;11.33;;;;;;;;;;4377747;32;20170;-79
2021/01/16 07:40:16;;;;;;;21.10;11.40;;;;;;;;;;4377634;32;20229;-79
2021/01/16 07:43:01;;;;;;;19.77;11.33;;;;;;;;;;4377342;32;20638;-79
2021/01/16 07:45:28;;;;;;;21.90;11.73;;;;;;;;;;4377764;32;20166;-78
2021/01/16 07:48:29;;;;;;;;;;;;;;;;;;;;;
2021/01/16 07:51:08;;;;;;;;;;;;;;;;;;;;;
2021/01/16 07:53:44;;;;;;;20.50;10.97;;;;;;;;;;4391180;32;20560;-78
2021/01/16 07:56:32;;;;;;;20.00;10.93;;;;;;;;;;4377326;32;20539;-79
2021/01/16 07:59:36;;;;;;;24.40;11.90;;;;;;;;;;4354870;32;20238;-79
2021/01/16 08:02:19;;;;;;;26.07;11.73;;;;;;;;;;4375172;32;20162;-80
2021/01/16 08:05:17;;;;;;;21.47;11.60;;;;;;;;;;4391098;32;20134;-80
2021/01/16 08:08:01;;;;;;;24.77;11.93;;;;;;;;;;4377260;32;20189;-79
2021/01/16 08:10:27;;;;;;;26.10;15.25;;;;;;;;;;4396811;32;20026;-79
2021/01/16 08:12:56;;;;;;;24.13;12.80;;;;;;;;;;4404006;32;20191;-77
2021/01/16 08:15:30;;;;;;;23.97;12.57;;;;;;;;;;4389329;32;20342;-78
2021/01/16 08:17:58;;;;;;;22.13;11.90;;;;;;;;;;4405592;32;20196;-76
2021/01/16 08:20:29;;;;;;;24.77;11.97;;;;;;;;;;4405128;32;20149;-77
2021/01/16 08:22:55;;;;;;;23.73;13.00;;;;;;;;;;4390988;32;20165;-78
2021/01/16 08:25:36;;;;;;;26.77;13.33;;;;;;;;;;4391345;32;20201;-75
2021/01/16 08:28:20;;;;;;;25.03;12.57;;;;;;;;;;4390341;32;20617;-75
2021/01/16 08:30:45;;;;;;;25.50;12.97;;;;;;;;;;4376076;32;20192;-75
2021/01/16 08:33:13;;;;;;;25.83;13.63;;;;;;;;;;4390211;32;20135;-75
2021/01/16 08:35:48;;;;;;;29.63;14.33;;;;;;;;;;4376511;32;20475;-75
2021/01/16 08:38:17;;;;;;;27.60;13.53;;;;;;;;;;4377293;32;20273;-75
2021/01/16 08:40:43;;;;;;;23.03;12.90;;;;;;;;;;4405134;32;20239;-75
2021/01/16 08:43:08;;;;;;;28.07;14.33;;;;;;;;;;4405016;32;20189;-75
2021/01/16 08:45:34;;;;;;;23.27;12.90;;;;;;;;;;4391218;32;20184;-76
2021/01/16 08:48:00;;;;;;;26.83;13.63;;;;;;;;;;4391233;32;20565;-75
2021/01/16 08:50:30;;;;;;;24.87;12.87;;;;;;;;;;4391118;32;20157;-75
2021/01/16 08:52:55;;;;;;;24.63;13.03;;;;;;;;;;4404830;32;20137;-74
2021/01/16 08:55:29;;;;;;;25.90;13.10;;;;;;;;;;4404746;32;20190;-74
2021/01/16 08:58:27;;;;;;;26.60;13.40;;;;;;;;;;4404809;32;20164;-74
2021/01/16 09:00:56;;;;;;;25.40;13.17;;;;;;;;;;4383959;32;20189;-75
2021/01/16 09:03:39;;;;;;;27.07;13.90;;;;;;;;;;4389725;32;20153;-78
2021/01/16 09:06:05;;;;;;;26.23;12.67;;;;;;;;;;4388850;32;20197;-78
2021/01/16 09:08:33;;;;;;;28.00;13.10;;;;;;;;;;4388405;32;20166;-77
2021/01/16 09:11:10;;;;;;;27.00;13.57;;;;;;;;;;4381126;32;20182;-76
2021/01/16 09:13:39;;;;;;;26.57;13.80;;;;;;;;;;4388156;32;20190;-77
2021/01/16 09:16:25;;;;;;;26.40;12.60;;;;;;;;;;4375948;32;20170;-77
2021/01/16 09:18:54;;;;;;;25.30;12.47;;;;;;;;;;4380099;32;20222;-77
2021/01/16 09:21:22;;;;;;;27.50;12.50;;;;;;;;;;4383672;32;20154;-77
2021/01/16 09:23:50;;;;;;;28.43;13.23;;;;;;;;;;4369841;32;20200;-78
2021/01/16 09:26:35;;;;;;;28.03;12.50;;;;;;;;;;4387761;32;20224;-76
2021/01/16 09:29:19;;;;;;;;;;;;;;;;;;;;;
2021/01/16 09:35:28;;;;;;;24.50;12.00;;;;;;;;;;4337549;33;20595;-78
2021/01/16 09:37:54;;;;;;;23.47;12.10;;;;;;;;;;4318433;33;20179;-75
2021/01/16 09:40:19;;;;;;;23.00;12.10;;;;;;;;;;4342409;33;20581;-76
2021/01/16 09:42:59;;;;;;;22.40;11.37;;;;;;;;;;4355939;32;20204;-78
2021/01/16 09:45:47;;;;;;;23.93;10.90;;;;;;;;;;4374488;32;20192;-77
2021/01/16 09:48:32;;;;;;;19.30;10.97;;;;;;;;;;4375803;32;20267;-79
2021/01/16 09:51:02;;;;;;;22.40;10.77;;;;;;;;;;4389165;32;20177;-76
2021/01/16 09:53:39;;;;;;;18.77;9.97;;;;;;;;;;4389020;32;20135;-78
2021/01/16 09:56:05;;;;;;;18.17;10.00;;;;;;;;;;4389328;32;20177;-77
2021/01/16 09:58:53;;;;;;;25.93;12.03;;;;;;;;;;4388845;32;20622;-77
2021/01/16 10:01:19;;;;;;;21.57;10.80;;;;;;;;;;4388691;32;20208;-78
2021/01/16 10:03:51;;;;;;;21.60;11.50;;;;;;;;;;4375418;32;20566;-78
2021/01/16 10:06:19;;;;;;;23.53;12.13;;;;;;;;;;4375662;32;20450;-78
2021/01/16 10:08:46;;;;;;;24.30;11.10;;;;;;;;;;4389152;32;20202;-76
2021/01/16 10:11:18;;;;;;;22.43;10.70;;;;;;;;;;4389440;32;20135;-76
2021/01/16 10:13:44;;;;;;;21.57;11.57;;;;;;;;;;4388651;32;20162;-75
2021/01/16 10:16:11;;;;;;;19.23;10.87;;;;;;;;;;4393839;32;20289;-76
2021/01/16 10:18:37;;;;;;;26.03;11.87;;;;;;;;;;4406859;32;20228;-75
2021/01/16 10:21:16;;;;;;;18.40;10.27;;;;;;;;;;4393573;32;20201;-77
2021/01/16 10:23:42;;;;;;;23.30;12.07;;;;;;;;;;4407415;32;20133;-77
2021/01/16 10:26:14;;;;;;;22.47;12.07;;;;;;;;;;4406697;32;20185;-78
2021/01/16 10:29:08;;;;;;;25.53;11.97;;;;;;;;;;4407081;32;20166;-75
2021/01/16 10:31:33;;;;;;;22.23;11.30;;;;;;;;;;4407276;32;20273;-77
2021/01/16 10:34:05;;;;;;;27.47;13.37;;;;;;;;;;4406172;32;20142;-76
2021/01/16 10:36:31;;;;;;;21.17;11.17;;;;;;;;;;4405136;32;20154;-77
2021/01/16 10:39:07;;;;;;;22.57;11.67;;;;;;;;;;4393176;32;20287;-77
2021/01/16 10:41:36;;;;;;;22.13;11.40;;;;;;;;;;4406937;32;20203;-77
2021/01/16 10:44:01;;;;;;;24.10;11.30;;;;;;;;;;4407050;32;20138;-79
2021/01/16 10:46:30;;;;;;;23.73;11.53;;;;;;;;;;4392400;32;20221;-78
2021/01/16 10:49:12;;;;;;;30.97;12.90;;;;;;;;;;4406115;32;20146;-78
2021/01/16 10:51:38;;;;;;;23.57;11.00;;;;;;;;;;4406990;32;20146;-78
2021/01/16 10:54:06;;;;;;;25.20;12.13;;;;;;;;;;4393263;32;20191;-79
2021/01/16 10:56:33;;;;;;;20.05;11.30;;;;;;;;;;4407211;32;20199;-78
2021/01/16 10:59:08;;;;;;;21.07;11.23;;;;;;;;;;4407409;32;20206;-78
2021/01/16 11:01:50;;;;;;;22.00;10.47;;;;;;;;;;4393066;32;20192;-78
2021/01/16 11:04:16;;;;;;;17.13;9.60;;;;;;;;;;4406990;32;20543;-78
2021/01/16 11:06:53;;;;;;;16.87;9.23;;;;;;;;;;4406746;32;20262;-80
2021/01/16 11:09:37;;;;;;;20.00;9.77;;;;;;;;;;4406891;32;20260;-79
2021/01/16 11:12:06;;;;;;;16.07;8.97;;;;;;;;;;4406642;32;20184;-80
2021/01/16 11:14:35;;;;;;;23.77;10.33;;;;;;;;;;4392842;32;20640;-80
2021/01/16 11:17:02;;;;;;;18.03;9.70;;;;;;;;;;4407132;32;20172;-80
2021/01/16 11:19:30;;;;;;;17.20;9.10;;;;;;;;;;4392845;32;20192;-79
2021/01/16 11:22:06;;;;;;;17.80;8.70;;;;;;;;;;4406672;32;20142;-79
2021/01/16 11:24:52;;;;;;;14.47;7.83;;;;;;;;;;4406659;32;20173;-79
2021/01/16 11:27:17;;;;;;;16.37;8.23;;;;;;;;;;4406249;32;20153;-79
2021/01/16 11:29:43;;;;;;;15.43;7.97;;;;;;;;;;4406357;32;20138;-79
2021/01/16 11:32:16;;;;;;;16.10;7.73;;;;;;;;;;4392521;32;20170;-79
2021/01/16 11:35:01;;;;;;;14.67;6.73;;;;;;;;;;4406396;32;20532;-79
2021/01/16 11:37:46;;;;;;;13.80;7.23;;;;;;;;;;4406400;32;20246;-79
2021/01/16 11:40:42;;;;;;;11.63;6.40;;;;;;;;;;4392227;32;20224;-79
2021/01/16 11:43:09;;;;;;;12.93;6.43;;;;;;;;;;4406321;32;20150;-79
2021/01/16 11:45:34;;;;;;;11.50;6.47;;;;;;;;;;4404692;32;20157;-79
2021/01/16 11:48:00;;;;;;;13.47;6.20;;;;;;;;;;4391317;32;20142;-77
2021/01/16 11:50:29;;;;;;;10.13;5.70;;;;;;;;;;4376778;32;20279;-79
2021/01/16 11:52:54;;;;;;;9.93;5.37;;;;;;;;;;4390775;32;20516;-79
2021/01/16 11:55:22;;;;;;;12.10;5.80;;;;;;;;;;4390831;32;20138;-79
2021/01/16 11:57:48;;;;;;;8.27;4.60;;;;;;;;;;4391512;32;20149;-80
2021/01/16 12:04:06;;;;;;;8.17;4.07;;;;;;;;;;4343896;33;20287;-81
2021/01/16 12:09:43;;;;;;;7.83;4.50;;;;;;;;;;4314343;33;20160;-79
2021/01/16 12:12:25;;;;;;;9.67;5.23;;;;;;;;;;4335994;33;20178;-79
2021/01/16 12:15:09;;;;;;;9.10;5.13;;;;;;;;;;4327978;33;20537;-78
2021/01/16 12:17:50;;;;;;;9.10;5.10;;;;;;;;;;4344236;33;20549;-78
2021/01/16 12:20:34;;;;;;;10.03;5.37;;;;;;;;;;4378943;32;20498;-78
2021/01/16 12:25:59;;;;;;;9.77;5.23;;;;;;;;;;4405224;32;20238;-78
2021/01/16 12:28:32;;;;;;;10.93;5.67;;;;;;;;;;4405785;32;20196;-79
2021/01/16 12:31:03;;;;;;;9.30;5.50;;;;;;;;;;4406156;32;20158;-80
2021/01/16 12:33:29;;;;;;;10.53;5.70;;;;;;;;;;4405731;32;20154;-79
2021/01/16 12:36:04;;;;;;;11.47;5.70;;;;;;;;;;4388982;32;20181;-78
2021/01/16 12:38:29;;;;;;;11.10;5.50;;;;;;;;;;4391349;32;20166;-79
2021/01/16 12:41:06;;;;;;;8.77;5.60;;;;;;;;;;4405414;32;20176;-78
2021/01/16 12:43:31;;;;;;;10.87;6.40;;;;;;;;;;4391803;32;20165;-79
2021/01/16 12:46:06;;;;;;;12.87;6.83;;;;;;;;;;4406082;32;20467;-79
2021/01/16 12:48:38;;;;;;;14.07;7.20;;;;;;;;;;4405908;32;20168;-80
2021/01/16 12:51:04;;;;;;;15.30;7.50;;;;;;;;;;4391321;32;20161;-79
2021/01/16 12:53:31;;;;;;;15.90;7.43;;;;;;;;;;4404710;32;20195;-79
2021/01/16 12:55:56;;;;;;;15.00;7.57;;;;;;;;;;4405454;32;20169;-80
2021/01/16 12:58:22;;;;;;;16.03;7.80;;;;;;;;;;4391471;32;20209;-79
2021/01/16 13:00:47;;;;;;;12.17;6.80;;;;;;;;;;4405924;32;20157;-78
2021/01/16 13:03:13;;;;;;;18.27;7.63;;;;;;;;;;4391402;32;20165;-78
2021/01/16 13:05:44;;;;;;;11.17;6.40;;;;;;;;;;4403667;32;20154;-80
2021/01/16 13:08:25;;;;;;;13.90;7.00;;;;;;;;;;4401439;32;20153;-79
2021/01/16 13:10:55;;;;;;;14.87;7.00;;;;;;;;;;4388490;32;20165;-78
2021/01/16 13:14:01;;;;;;;18.40;7.23;;;;;;;;;;4389853;32;20150;-80
2021/01/16 13:16:48;;;;;;;14.17;7.20;;;;;;;;;;4389099;32;20504;-79
2021/01/16 13:19:20;;;;;;;17.07;7.57;;;;;;;;;;4390388;32;20143;-78
2021/01/16 13:21:49;;;;;;;21.30;7.77;;;;;;;;;;4377907;32;20626;-77
2021/01/16 13:24:22;;;;;;;15.50;7.77;;;;;;;;;;4378205;32;20166;-77
2021/01/16 13:26:47;;;;;;;14.50;8.00;;;;;;;;;;4404422;32;20225;-77
2021/01/16 13:29:15;;;;;;;17.30;7.90;;;;;;;;;;4404948;32;20180;-77
2021/01/16 13:31:43;;;;;;;17.63;7.63;;;;;;;;;;4405059;32;20184;-77
2021/01/16 13:34:12;;;;;;;14.63;7.53;;;;;;;;;;4414338;32;20173;-78
2021/01/16 13:36:38;;;;;;;13.53;7.47;;;;;;;;;;4404909;32;20145;-76
2021/01/16 13:39:14;;;;;;;16.27;8.77;;;;;;;;;;4404592;32;20199;-76
2021/01/16 13:42:08;;;;;;;;;;;;;;;;;;;;;
2021/01/16 13:44:55;;;;;;;;;;;;;;;;;;;;;
2021/01/16 13:47:21;;;;;;;19.47;8.97;;;;;;;;;;4404818;32;20580;-77
2021/01/16 13:49:49;;;;;;;20.00;9.60;;;;;;;;;;4392737;32;20169;-77
2021/01/16 13:52:14;;;;;;;17.57;8.33;;;;;;;;;;4407901;32;20208;-77
2021/01/16 13:54:41;;;;;;;19.13;8.93;;;;;;;;;;4391943;32;20204;-77
2021/01/16 13:57:41;;;;;;;21.77;9.10;;;;;;;;;;4406482;32;20162;-78
2021/01/16 14:00:21;;;;;;;21.60;10.27;;;;;;;;;;4404286;32;20170;-77
2021/01/16 14:02:59;;;;;;;20.90;10.13;;;;;;;;;;4394059;32;20575;-77
2021/01/16 14:05:28;;;;;;;23.93;10.73;;;;;;;;;;4407641;32;20138;-78
2021/01/16 14:08:41;;;;;;;25.73;11.43;;;;;;;;;;4407677;32;20142;-79
2021/01/16 14:10:47;;;;;;;28.33;11.67;;;;;;;;;;4397112;32;20178;-79
2021/01/16 14:13:31;;;;;;;24.93;12.00;;;;;;;;;;4394099;32;20197;-78
2021/01/16 14:16:07;;;;;;;29.33;12.20;;;;;;;;;;4393892;32;20199;-79
2021/01/16 14:18:40;;;;;;;30.83;13.27;;;;;;;;;;4407482;32;20189;-77
2021/01/16 14:21:18;;;;;;;25.33;12.30;;;;;;;;;;4394365;32;20251;-78
2021/01/16 14:23:53;;;;;;;29.37;12.23;;;;;;;;;;4407717;32;20169;-78
2021/01/16 14:26:19;;;;;;;26.87;12.40;;;;;;;;;;4407501;32;20157;-78
2021/01/16 14:29:20;;;;;;;27.83;12.90;;;;;;;;;;4393914;32;20174;-78
2021/01/16 14:34:52;;;;;;;26.57;12.57;;;;;;;;;;4406122;32;20186;-78
2021/01/16 14:37:29;;;;;;;32.97;13.13;;;;;;;;;;4407412;32;20231;-78
2021/01/16 14:42:59;;;;;;;;;;;;;;;;;;;;;
2021/01/16 14:45:27;;;;;;;31.20;13.10;;;;;;;;;;4388174;32;20229;-78
2021/01/16 14:48:05;;;;;;;29.90;13.63;;;;;;;;;;4386819;32;20224;-79
2021/01/16 14:50:40;;;;;;;35.13;13.40;;;;;;;;;;4378576;32;20185;-77
2021/01/16 14:53:51;;;;;;;33.77;14.37;;;;;;;;;;4378202;32;20215;-77
2021/01/16 14:56:33;;;;;;;34.77;14.93;;;;;;;;;;4381377;32;20208;-77
2021/01/16 14:59:02;;;;;;;35.40;14.07;;;;;;;;;;4380135;32;20173;-71
2021/01/16 15:02:23;;;;;;;32.97;14.13;;;;;;;;;;4404436;32;20203;-72
2021/01/16 15:10:18;;;;;;;31.50;14.53;;;;;;;;;;4405615;32;20510;-72
2021/01/16 15:13:22;;;;;;;;;;;;;;;;;;;;;
2021/01/16 15:15:55;;;;;;;29.97;13.13;;;;;;;;;;4338538;33;20155;-72
2021/01/16 15:18:21;;;;;;;34.10;15.10;;;;;;;;;;4406496;32;20643;-72
2021/01/16 15:20:51;;;;;;;38.87;16.10;;;;;;;;;;4393083;32;20158;-71
2021/01/16 15:23:17;;;;;;;38.13;16.27;;;;;;;;;;4392176;32;20158;-72
2021/01/16 15:25:42;;;;;;;37.57;15.93;;;;;;;;;;4392650;32;20582;-72
2021/01/16 15:31:05;;;;;;;34.67;15.67;;;;;;;;;;4344859;33;20324;-71
2021/01/16 15:36:58;;;;;;;37.10;15.73;;;;;;;;;;4406830;32;20164;-71
2021/01/16 15:39:24;;;;;;;36.03;15.73;;;;;;;;;;4392110;32;20168;-71
2021/01/16 16:08:22;;;;;;;39.13;18.00;;;;;;;;;;4333100;33;20192;-72
2021/01/16 16:13:51;;;;;;;40.50;17.53;;;;;;;;;;4352137;33;20228;-72
2021/01/16 16:16:25;;;;;;;38.60;18.20;;;;;;;;;;4391946;32;20566;-72
2021/01/16 16:19:00;;;;;;;39.50;17.23;;;;;;;;;;4401703;32;20173;-73
2021/01/16 16:21:40;;;;;;;38.27;16.83;;;;;;;;;;4392451;32;20180;-73
2021/01/16 16:24:27;;;;;;;43.63;17.93;;;;;;;;;;4406891;32;20558;-73
2021/01/16 16:27:02;;;;;;;43.47;18.13;;;;;;;;;;4399841;32;20251;-72
2021/01/16 16:29:27;;;;;;;43.33;18.80;;;;;;;;;;4400082;32;20305;-73
2021/01/16 16:32:08;;;;;;;40.40;17.57;;;;;;;;;;4386388;32;20520;-73
2021/01/16 16:37:35;;;;;;;54.70;21.30;;;;;;;;;;4404403;32;20500;-72
2021/01/16 16:43:11;;;;;;;;;;;;;;;;;;;;;
2021/01/16 16:46:12;;;;;;;;;;;;;;;;;;;;;
2021/01/16 16:54:20;;;;;;;47.10;21.17;;;;;;;;;;4401263;32;20576;-72
2021/01/16 16:57:11;;;;;;;;;;;;;;;;;;;;;
2021/01/16 17:02:29;;;;;;;52.43;20.43;;;;;;;;;;4342769;33;20249;-71
2021/01/16 17:04:55;;;;;;;51.37;21.70;;;;;;;;;;4343333;33;20225;-69
2021/01/16 17:07:20;;;;;;;53.37;22.63;;;;;;;;;;4376126;32;20161;-71
2021/01/16 17:09:45;;;;;;;52.17;22.10;;;;;;;;;;4377298;32;20219;-71
2021/01/16 17:18:31;;;;;;;62.50;24.17;;;;;;;;;;4390451;32;20578;-71
2021/01/16 17:38:47;;;;;;;49.27;21.10;;;;;;;;;;4334281;33;20180;-71
2021/01/16 17:41:13;;;;;;;49.57;22.43;;;;;;;;;;4342152;33;20187;-71
2021/01/16 17:43:38;;;;;;;52.57;22.43;;;;;;;;;;4338932;33;20186;-71
2021/01/16 17:46:04;;;;;;;51.83;22.90;;;;;;;;;;4386068;32;20499;-71
2021/01/16 17:48:48;;;;;;;49.63;21.67;;;;;;;;;;4374333;32;20238;-71
2021/01/16 17:51:13;;;;;;;59.97;23.10;;;;;;;;;;4389709;32;20158;-71
2021/01/16 17:53:38;;;;;;;54.43;23.00;;;;;;;;;;4375797;32;20619;-70
2021/01/16 17:56:04;;;;;;;48.93;22.20;;;;;;;;;;4389816;32;20204;-71
2021/01/16 18:01:35;;;;;;;51.70;22.87;;;;;;;;;;4390604;32;20168;-71
2021/01/16 18:04:10;;;;;;;51.47;22.43;;;;;;;;;;4390155;32;20150;-71
2021/01/16 18:06:38;;;;;;;51.43;21.83;;;;;;;;;;4383985;32;20593;-71
2021/01/16 18:09:07;;;;;;;48.07;21.47;;;;;;;;;;4389494;32;20205;-71
2021/01/16 18:11:33;;;;;;;56.17;23.50;;;;;;;;;;4390129;32;20205;-72
2021/01/16 18:13:59;;;;;;;54.03;22.27;;;;;;;;;;4375858;32;20163;-72
2021/01/16 18:16:27;;;;;;;56.00;23.43;;;;;;;;;;4374030;32;20158;-72
2021/01/16 18:18:52;;;;;;;55.87;24.53;;;;;;;;;;4381020;32;20190;-71
2021/01/16 18:21:34;;;;;;;66.20;26.90;;;;;;;;;;4378880;32;20139;-72
2021/01/16 18:23:59;;;;;;;72.73;30.83;;;;;;;;;;4384890;32;20141;-72
2021/01/16 18:26:38;;;;;;;61.47;27.40;;;;;;;;;;4389695;32;20488;-72
2021/01/16 18:29:10;;;;;;;55.30;24.50;;;;;;;;;;4389911;32;20649;-71
2021/01/16 18:31:37;;;;;;;55.63;24.20;;;;;;;;;;4392753;32;20606;-72
2021/01/16 18:34:05;;;;;;;57.80;23.87;;;;;;;;;;4405127;32;20620;-71
2021/01/16 18:36:30;;;;;;;55.47;24.60;;;;;;;;;;4406477;32;20139;-71
2021/01/16 18:39:15;;;;;;;61.30;24.60;;;;;;;;;;4407311;32;20633;-71
2021/01/16 18:41:41;;;;;;;55.30;24.30;;;;;;;;;;4407513;32;20491;-71
2021/01/16 18:44:06;;;;;;;63.77;24.30;;;;;;;;;;4407341;32;20134;-71
2021/01/16 18:46:32;;;;;;;57.47;24.87;;;;;;;;;;4406677;32;20226;-71
2021/01/16 18:49:24;;;;;;;;;;;;;;;;;;;;;
2021/01/16 18:55:04;;;;;;;57.07;22.97;;;;;;;;;;4387166;32;20266;-72
2021/01/16 18:58:03;;;;;;;56.87;24.47;;;;;;;;;;4378219;32;20247;-71
2021/01/16 19:00:31;;;;;;;56.80;23.10;;;;;;;;;;4392156;32;20177;-72
2021/01/16 19:09:14;;;;;;;60.43;25.10;;;;;;;;;;4344541;33;20187;-71
2021/01/16 19:17:44;;;;;;;61.07;24.27;;;;;;;;;;4331051;33;20186;-72